sensor_id;sensor_type;location;lat;lon;timestamp;pressure;altitude;pressure_sealevel;temperature;humidity
76687;BME280;65615;47.378;19.344;2024-03-07T05:19:23;100184.75;;;6.75;100.00
76687;BME280;65615;47.378;19.344;2024-03-07T05:23:27;100184.75;;;6.75;100.00
76687;BME280;65615;47.378;19.344;2024-03-07T05:27:30;100202.44;;;6.33;100.00
76687;BME280;65615;47.378;19.344;2024-03-07T05:31:34;100204.28;;;6.22;100.00
76687;BME280;65615;47.378;19.344;2024-03-07T05:35:37;100199.19;;;6.20;100.00
76687;BME280;65615;47.378;19.344;2024-03-07T05:39:41;100207.84;;;6.11;100.00
76687;BME280;65615;47.378;19.344;2024-03-07T05:43:43;100200.25;;;6.18;100.00
76687;BME280;65615;47.378;19.344;2024-03-07T05:47:47;100207.16;;;6.39;100.00
76687;BME280;65615;47.378;19.344;2024-03-07T05:51:51;100209.78;;;6.39;100.00
76687;BME280;65615;47.378;19.344;2024-03-07T05:55:54;100214.72;;;6.33;100.00
76687;BME280;65615;47.378;19.344;2024-03-07T05:59:57;100210.72;;;6.38;100.00
76687;BME280;65615;47.378;19.344;2024-03-07T06:04:01;100217.91;;;6.36;100.00
76687;BME280;65615;47.378;19.344;2024-03-07T06:08:05;100222.88;;;6.39;100.00
76687;BME280;65615;47.378;19.344;2024-03-07T06:12:09;100225.34;;;6.31;100.00
76687;BME280;65615;47.378;19.344;2024-03-07T06:16:24;100228.69;;;6.43;100.00
76687;BME280;65615;47.378;19.344;2024-03-07T06:20:27;100232.78;;;6.36;100.00
76687;BME280;65615;47.378;19.344;2024-03-07T06:24:32;100218.72;;;6.37;100.00
76687;BME280;65615;47.378;19.344;2024-03-07T06:28:42;100233.50;;;6.38;100.00
76687;BME280;65615;47.378;19.344;2024-03-07T06:32:45;100230.63;;;6.41;100.00
76687;BME280;65615;47.378;19.344;2024-03-07T06:36:48;100235.31;;;6.37;100.00
76687;BME280;65615;47.378;19.344;2024-03-07T06:40:53;100235.31;;;6.37;100.00
76687;BME280;65615;47.378;19.344;2024-03-07T06:45:06;100244.44;;;6.43;100.00
76687;BME280;65615;47.378;19.344;2024-03-07T06:49:40;100242.56;;;6.54;100.00
76687;BME280;65615;47.378;19.344;2024-03-07T06:53:48;100254.16;;;6.61;100.00
76687;BME280;65615;47.378;19.344;2024-03-07T06:57:58;100251.13;;;6.56;100.00
76687;BME280;65615;47.378;19.344;2024-03-07T07:02:42;100256.00;;;6.70;100.00
76687;BME280;65615;47.378;19.344;2024-03-07T07:06:50;100262.28;;;6.79;100.00
76687;BME280;65615;47.378;19.344;2024-03-07T07:11:18;100257.66;;;6.71;100.00
76687;BME280;65615;47.378;19.344;2024-03-07T07:15:45;100255.88;;;6.72;100.00
76687;BME280;65615;47.378;19.344;2024-03-07T07:19:59;100260.72;;;6.76;100.00
76687;BME280;65615;47.378;19.344;2024-03-07T07:24:30;100259.16;;;6.64;100.00
76687;BME280;65615;47.378;19.344;2024-03-07T07:28:45;100261.28;;;6.80;100.00
76687;BME280;65615;47.378;19.344;2024-03-07T07:32:53;100270.34;;;6.97;100.00
76687;BME280;65615;47.378;19.344;2024-03-07T07:37:04;100270.75;;;7.02;100.00
76687;BME280;65615;47.378;19.344;2024-03-07T07:41:20;100267.75;;;7.16;100.00
76687;BME280;65615;47.378;19.344;2024-03-07T07:45:25;100270.81;;;7.21;100.00
76687;BME280;65615;47.378;19.344;2024-03-07T07:49:54;100274.28;;;7.31;100.00
76687;BME280;65615;47.378;19.344;2024-03-07T07:54:08;100273.12;;;7.05;100.00
76687;BME280;65615;47.378;19.344;2024-03-07T07:58:17;100283.78;;;7.22;100.00
76687;BME280;65615;47.378;19.344;2024-03-07T08:02:21;100291.81;;;7.21;100.00
76687;BME280;65615;47.378;19.344;2024-03-07T08:06:28;100299.41;;;7.24;100.00
76687;BME280;65615;47.378;19.344;2024-03-07T08:10:43;100291.91;;;7.10;100.00
76687;BME280;65615;47.378;19.344;2024-03-07T08:15:17;100293.97;;;6.97;100.00
76687;BME280;65615;47.378;19.344;2024-03-07T08:19:31;100305.50;;;7.15;100.00
76687;BME280;65615;47.378;19.344;2024-03-07T08:23:40;100301.31;;;7.03;100.00
76687;BME280;65615;47.378;19.344;2024-03-07T08:27:48;100305.53;;;6.84;100.00
76687;BME280;65615;47.378;19.344;2024-03-07T08:31:57;100306.28;;;7.06;100.00
76687;BME280;65615;47.378;19.344;2024-03-07T08:36:07;100310.47;;;7.18;100.00
76687;BME280;65615;47.378;19.344;2024-03-07T08:40:46;100314.94;;;7.36;100.00
76687;BME280;65615;47.378;19.344;2024-03-07T08:45:03;100318.81;;;7.32;100.00
76687;BME280;65615;47.378;19.344;2024-03-07T08:49:11;100320.50;;;7.62;100.00
76687;BME280;65615;47.378;19.344;2024-03-07T08:53:16;100322.06;;;7.93;100.00
76687;BME280;65615;47.378;19.344;2024-03-07T08:57:29;100322.75;;;8.33;100.00
76687;BME280;65615;47.378;19.344;2024-03-07T09:02:12;100315.37;;;8.08;100.00
76687;BME280;65615;47.378;19.344;2024-03-07T09:06:37;100320.06;;;8.24;100.00
76687;BME280;65615;47.378;19.344;2024-03-07T09:11:05;100328.25;;;8.02;100.00
76687;BME280;65615;47.378;19.344;2024-03-07T09:16:11;100321.50;;;8.37;100.00
76687;BME280;65615;47.378;19.344;2024-03-07T09:20:39;100328.81;;;8.43;100.00
76687;BME280;65615;47.378;19.344;2024-03-07T09:24:57;100333.78;;;8.46;100.00
76687;BME280;65615;47.378;19.344;2024-03-07T09:29:06;100332.16;;;8.26;100.00
76687;BME280;65615;47.378;19.344;2024-03-07T09:33:29;100331.91;;;8.29;100.00
76687;BME280;65615;47.378;19.344;2024-03-07T09:37:36;100334.47;;;8.48;100.00
76687;BME280;65615;47.378;19.344;2024-03-07T09:41:45;100335.66;;;8.73;100.00
76687;BME280;65615;47.378;19.344;2024-03-07T09:46:14;100336.50;;;8.74;100.00
76687;BME280;65615;47.378;19.344;2024-03-07T09:50:41;100343.13;;;8.78;100.00
76687;BME280;65615;47.378;19.344;2024-03-07T09:55:05;100338.09;;;8.84;100.00
76687;BME280;65615;47.378;19.344;2024-03-07T09:59:19;100348.09;;;8.81;100.00
76687;BME280;65615;47.378;19.344;2024-03-07T10:04:12;100353.53;;;8.79;100.00
76687;BME280;65615;47.378;19.344;2024-03-07T10:08:47;100352.22;;;8.93;100.00
76687;BME280;65615;47.378;19.344;2024-03-07T10:12:59;100348.41;;;8.68;100.00
76687;BME280;65615;47.378;19.344;2024-03-07T10:17:44;100352.53;;;8.80;100.00
76687;BME280;65615;47.378;19.344;2024-03-07T10:22:19;100361.31;;;9.08;100.00
76687;BME280;65615;47.378;19.344;2024-03-07T10:26:43;100357.69;;;8.82;100.00
76687;BME280;65615;47.378;19.344;2024-03-07T10:31:11;100357.41;;;8.75;100.00
76687;BME280;65615;47.378;19.344;2024-03-07T10:35:51;100368.81;;;9.03;100.00
76687;BME280;65615;47.378;19.344;2024-03-07T10:40:16;100365.03;;;9.42;100.00
76687;BME280;65615;47.378;19.344;2024-03-07T10:44:29;100370.25;;;8.97;100.00
76687;BME280;65615;47.378;19.344;2024-03-07T10:48:48;100368.03;;;8.93;100.00
76687;BME280;65615;47.378;19.344;2024-03-07T10:53:10;100368.38;;;8.71;100.00
76687;BME280;65615;47.378;19.344;2024-03-07T11:02:32;100362.47;;;8.49;100.00
76687;BME280;65615;47.378;19.344;2024-03-07T11:06:39;100369.94;;;8.64;100.00
76687;BME280;65615;47.378;19.344;2024-03-07T11:10:52;100374.88;;;8.76;100.00
76687;BME280;65615;47.378;19.344;2024-03-07T11:14:56;100365.63;;;8.63;100.00
76687;BME280;65615;47.378;19.344;2024-03-07T11:19:49;100369.75;;;8.75;100.00
76687;BME280;65615;47.378;19.344;2024-03-07T11:24:03;100366.16;;;8.76;100.00
76687;BME280;65615;47.378;19.344;2024-03-07T11:28:18;100371.56;;;9.11;100.00
76687;BME280;65615;47.378;19.344;2024-03-07T11:32:28;100368.81;;;8.56;100.00
76687;BME280;65615;47.378;19.344;2024-03-07T11:37:10;100362.03;;;8.54;100.00
76687;BME280;65615;47.378;19.344;2024-03-07T11:41:48;100368.38;;;8.71;100.00
76687;BME280;65615;47.378;19.344;2024-03-07T11:46:15;100368.19;;;8.35;100.00
76687;BME280;65615;47.378;19.344;2024-03-07T11:50:45;100371.19;;;8.40;100.00
76687;BME280;65615;47.378;19.344;2024-03-07T11:55:01;100366.75;;;8.22;100.00
76687;BME280;65615;47.378;19.344;2024-03-07T11:59:24;100366.50;;;8.34;100.00
76687;BME280;65615;47.378;19.344;2024-03-07T12:03:41;100361.63;;;8.20;100.00
76687;BME280;65615;47.378;19.344;2024-03-07T12:08:39;100367.88;;;8.38;100.00
76687;BME280;65615;47.378;19.344;2024-03-07T12:13:16;100366.91;;;8.20;100.00
76687;BME280;65615;47.378;19.344;2024-03-07T12:17:37;100365.13;;;8.30;100.00
76687;BME280;65615;47.378;19.344;2024-03-07T12:22:08;100364.97;;;8.13;100.00
76687;BME280;65615;47.378;19.344;2024-03-07T12:26:34;100370.62;;;8.56;100.00
76687;BME280;65615;47.378;19.344;2024-03-07T12:30:53;100366.19;;;8.18;100.00
76687;BME280;65615;47.378;19.344;2024-03-07T12:35:17;100370.09;;;8.14;100.00
76687;BME280;65615;47.378;19.344;2024-03-07T12:39:25;100365.97;;;8.31;100.00
76687;BME280;65615;47.378;19.344;2024-03-07T12:43:40;100365.38;;;8.46;100.00
76687;BME280;65615;47.378;19.344;2024-03-07T12:48:03;100367.53;;;8.80;100.00
76687;BME280;65615;47.378;19.344;2024-03-07T12:52:22;100370.00;;;8.81;100.00
76687;BME280;65615;47.378;19.344;2024-03-07T12:56:29;100363.09;;;8.71;100.00
76687;BME280;65615;47.378;19.344;2024-03-07T13:01:03;100360.66;;;8.40;100.00
76687;BME280;65615;47.378;19.344;2024-03-07T13:05:23;100360.53;;;8.23;100.00
76687;BME280;65615;47.378;19.344;2024-03-07T13:09:45;100377.53;;;8.67;100.00
76687;BME280;65615;47.378;19.344;2024-03-07T13:14:01;100367.62;;;8.41;100.00
76687;BME280;65615;47.378;19.344;2024-03-07T13:18:06;100363.03;;;8.43;100.00
76687;BME280;65615;47.378;19.344;2024-03-07T13:22:35;100367.59;;;8.13;100.00
76687;BME280;65615;47.378;19.344;2024-03-07T13:26:39;100372.31;;;8.09;100.00
76687;BME280;65615;47.378;19.344;2024-03-07T13:31:13;100376.03;;;8.07;100.00
76687;BME280;65615;47.378;19.344;2024-03-07T13:35:32;100372.16;;;8.11;100.00
76687;BME280;65615;47.378;19.344;2024-03-07T13:39:51;100374.78;;;7.92;100.00
76687;BME280;65615;47.378;19.344;2024-03-07T13:44:04;100373.69;;;7.85;100.00
76687;BME280;65615;47.378;19.344;2024-03-07T13:48:20;100371.19;;;7.93;100.00
76687;BME280;65615;47.378;19.344;2024-03-07T13:52:25;100369.81;;;7.79;100.00
76687;BME280;65615;47.378;19.344;2024-03-07T13:56:33;100376.94;;;7.58;100.00
76687;BME280;65615;47.378;19.344;2024-03-07T14:00:55;100384.88;;;7.77;100.00
76687;BME280;65615;47.378;19.344;2024-03-07T14:14:00;100384.97;;;7.47;100.00
76687;BME280;65615;47.378;19.344;2024-03-07T14:27:27;100401.31;;;7.60;100.00
76687;BME280;65615;47.378;19.344;2024-03-07T14:31:38;100390.78;;;7.60;100.00
76687;BME280;65615;47.378;19.344;2024-03-07T14:36:11;100394.31;;;7.40;100.00
76687;BME280;65615;47.378;19.344;2024-03-07T14:40:18;100394.47;;;7.38;100.00
76687;BME280;65615;47.378;19.344;2024-03-07T14:44:24;100399.59;;;7.40;100.00
76687;BME280;65615;47.378;19.344;2024-03-07T14:48:29;100395.03;;;7.42;100.00
76687;BME280;65615;47.378;19.344;2024-03-07T14:52:33;100401.12;;;7.52;100.00
76687;BME280;65615;47.378;19.344;2024-03-07T14:56:37;100395.47;;;7.47;100.00
76687;BME280;65615;47.378;19.344;2024-03-07T15:00:40;100395.69;;;7.34;100.00
76687;BME280;65615;47.378;19.344;2024-03-07T15:04:59;100398.12;;;7.17;100.00
76687;BME280;65615;47.378;19.344;2024-03-07T15:09:03;100392.87;;;7.17;100.00
76687;BME280;65615;47.378;19.344;2024-03-07T15:13:06;100398.19;;;7.36;100.00
76687;BME280;65615;47.378;19.344;2024-03-07T15:17:10;100397.59;;;7.23;100.00
76687;BME280;65615;47.378;19.344;2024-03-07T15:21:21;100399.66;;;6.89;100.00
76687;BME280;65615;47.378;19.344;2024-03-07T15:25:25;100408.75;;;6.85;100.00
76687;BME280;65615;47.378;19.344;2024-03-07T15:29:29;100401.69;;;6.85;100.00
76687;BME280;65615;47.378;19.344;2024-03-07T15:33:36;100401.28;;;6.80;100.00
76687;BME280;65615;47.378;19.344;2024-03-07T15:37:51;100403.72;;;6.72;100.00
76687;BME280;65615;47.378;19.344;2024-03-07T15:41:57;100403.44;;;6.75;100.00
76687;BME280;65615;47.378;19.344;2024-03-07T15:46:02;100403.25;;;6.67;100.00
76687;BME280;65615;47.378;19.344;2024-03-07T15:50:06;100409.84;;;6.82;100.00
76687;BME280;65615;47.378;19.344;2024-03-07T15:54:10;100420.59;;;6.79;100.00
76687;BME280;65615;47.378;19.344;2024-03-07T15:58:14;100419.97;;;6.66;100.00
